SBJU/JDO METAR and TAF weather

Enter ICAO airport designator
Station Type Date Time Source
SBJU METAR 2019/02/17 06:00 UTC NOAA

SBJU 170600Z 00000KT 9999 BKN015 24/22 Q1015


Station Type Date Time Source
SBJU Decoded METAR 2019/02/17 06:00 UTC NOAA

Station name not available
Feb 17, 2019 - 01:00 AM EST / 2019.02.17 0600 UTC
Wind: Calm:0
Visibility: greater than 7 mile(s):0
Sky conditions: mostly cloudy
Temperature: 75 F (24 C)
Dew Point: 71 F (22 C)
Relative Humidity: 88%
Pressure (altimeter): 29.97 in. Hg (1015 hPa)
ob: SBJU 170600Z 00000KT 9999 BKN015 24/22 Q1015
cycle: 6

Station Type Date Time Source
SBJU TAF 2011/11/01 00:05 UTC NOAA

TAF SBJU 012200Z 0200/0212 00000KT 9999 SCT020 TX28/0200Z TN24/0207Z
BECMG 0210/0212 06005KT
RMK PCE


Example: see airport list